LKKV

Karlovy Vary International Airport

Karlovy Vary, Czech Republic
TAF LKKV 191100Z 1912/2018 06004KT CAVOK TEMPO 2000/2015 4000 -SG BR BKN007 PROB30 TEMPO 2000/2010 2000 -SN BR BKN004
Issued Valid From Valid To
Jan-19 @ 11:00 UTC
(6 hours ago)
Jan-19 @ 12:00 UTC
(5 hours ago)
Jan-20 @ 18:00 UTC
(-1 days ago)
Jan-19 @ 12:00 to Jan-20 @ 18:00
TAF LKKV 191100Z 1912/2018 06004KT CAVOK
Wind Visibility Clouds Conditions
60° at 4 knots 10,000+ meters
  • No significant clouds
Temporary  (Probability 30%) Jan-20 @ 00:00 to Jan-20 @ 10:00
PROB30 TEMPO 2000/2010 2000 -SN BR BKN004
Visibility Clouds Conditions
1,996 meters
  • Broken at 400' AGL
  • Light Snow
  • Mist
Temporary Jan-20 @ 00:00 to Jan-20 @ 15:00
TEMPO 2000/2015 4000 -SG BR BKN007
Visibility Clouds Conditions
4,007 meters
  • Broken at 700' AGL
  • Light Snow grains
  • Mist
TAF LKKV 191100Z 1912/2018 06004KT CAVOK TEMPO 2000/2015 4000 -SG BR BKN007 PROB30 TEMPO 2000/2010 2000 -SN BR BKN004
Issued Jan-19 @ 11:00 UTC
(6 hours ago)
Valid From Jan-19 @ 12:00 UTC
(5 hours ago)
Valid To Jan-20 @ 18:00 UTC
(-1 days ago)
Jan-19 @ 12:00 - Jan-20 @ 18:00
Wind Visibility
60° at 4 knots 10,000+ meters
Clouds
  • No significant clouds
Conditions
Probability 30% Temporary Jan-20 @ 00:00 - Jan-20 @ 10:00
Clouds
  • Broken at 400' AGL
Conditions
  • Light Snow
  • Mist
Temporary Jan-20 @ 00:00 - Jan-20 @ 15:00
Clouds
  • Broken at 700' AGL
Conditions
  • Light Snow grains
  • Mist